createdAt,value
2017-12-24T00:02:04.902Z,101513.11
2017-12-24T00:04:30.674Z,101517.94
2017-12-24T00:06:56.483Z,101531.13
2017-12-24T00:09:22.310Z,101524.80
2017-12-24T00:11:48.126Z,101526.61
2017-12-24T00:14:13.942Z,101530.92
2017-12-24T00:16:39.720Z,101511.54
2017-12-24T00:19:05.493Z,101534.77
2017-12-24T00:21:31.294Z,101531.75
2017-12-24T00:23:57.061Z,101533.12
2017-12-24T00:26:22.834Z,101527.51
2017-12-24T00:28:48.640Z,101530.81
2017-12-24T00:31:14.419Z,101525.83
2017-12-24T00:33:40.206Z,101523.31
2017-12-24T00:36:05.975Z,101514.61
2017-12-24T00:38:31.749Z,101524.01
2017-12-24T00:40:58.969Z,101523.02
2017-12-24T00:43:24.747Z,101519.67
2017-12-24T00:45:50.528Z,101519.26
2017-12-24T00:48:16.318Z,101529.87
2017-12-24T00:50:42.092Z,101533.44
2017-12-24T00:53:07.872Z,101545.03
2017-12-24T00:55:33.834Z,101536.83
2017-12-24T00:57:59.611Z,101530.89
2017-12-24T01:00:25.406Z,101523.12
2017-12-24T01:02:51.399Z,101533.56
2017-12-24T01:05:17.186Z,101530.13
2017-12-24T01:07:42.970Z,101525.89
2017-12-24T01:10:08.758Z,101522.13
2017-12-24T01:12:34.558Z,101529.44
2017-12-24T01:15:00.325Z,101519.66
2017-12-24T01:17:26.113Z,101529.18
2017-12-24T01:19:51.890Z,101531.25
2017-12-24T01:22:17.692Z,101541.14
2017-12-24T01:24:43.858Z,101528.30
2017-12-24T01:27:09.638Z,101532.58
2017-12-24T01:29:35.414Z,101542.76
2017-12-24T01:32:01.202Z,101535.95
2017-12-24T01:34:26.972Z,101543.58
2017-12-24T01:36:52.746Z,101557.92
2017-12-24T01:39:18.520Z,101567.35
2017-12-24T01:41:44.322Z,101560.16
2017-12-24T01:44:10.108Z,101561.09
2017-12-24T01:46:35.892Z,101559.29
2017-12-24T01:49:01.752Z,101543.52
2017-12-24T01:51:27.478Z,101577.58
2017-12-24T01:53:53.479Z,101573.99
2017-12-24T01:56:19.294Z,101575.19
2017-12-24T01:58:45.084Z,101572.52
2017-12-24T02:01:10.870Z,101578.45
2017-12-24T02:03:37.572Z,101577.05
2017-12-24T02:06:03.353Z,101576.98
2017-12-24T02:08:29.128Z,101571.23
2017-12-24T02:10:55.093Z,101565.40
2017-12-24T02:13:20.874Z,101565.02
2017-12-24T02:15:46.674Z,101570.04
2017-12-24T02:18:12.468Z,101574.78
2017-12-24T02:20:38.262Z,101572.39
2017-12-24T02:23:04.051Z,101562.70
2017-12-24T02:25:29.846Z,101558.53
2017-12-24T02:27:55.623Z,101558.25
2017-12-24T02:30:21.397Z,101553.85
2017-12-24T02:32:47.191Z,101546.28
2017-12-24T02:35:12.970Z,101549.70
2017-12-24T02:37:38.752Z,101543.95
2017-12-24T02:40:04.539Z,101545.27
2017-12-24T02:42:30.334Z,101542.21
2017-12-24T02:44:56.143Z,101549.01
2017-12-24T02:47:21.925Z,101545.87
2017-12-24T02:49:47.747Z,101542.27
2017-12-24T02:52:13.542Z,101555.27
2017-12-24T02:54:39.313Z,101546.63
2017-12-24T02:57:05.105Z,101542.88
2017-12-24T02:59:30.870Z,101551.94
2017-12-24T03:01:56.646Z,101541.83
2017-12-24T03:04:22.714Z,101549.70
2017-12-24T03:06:48.527Z,101543.52
2017-12-24T03:09:14.307Z,101539.55
2017-12-24T03:11:40.091Z,101535.26
2017-12-24T03:14:05.896Z,101529.67
2017-12-24T03:16:31.670Z,101529.03
2017-12-24T03:18:57.451Z,101516.13
2017-12-24T03:21:23.234Z,101520.59
2017-12-24T03:23:49.023Z,101521.56
2017-12-24T03:26:14.808Z,101521.97
2017-12-24T03:28:40.794Z,101517.28
2017-12-24T03:31:06.596Z,101517.21
2017-12-24T03:33:32.386Z,101512.48
2017-12-24T03:35:58.190Z,101518.36
2017-12-24T03:38:23.980Z,101516.24
2017-12-24T03:40:49.749Z,101501.97
2017-12-24T03:43:15.523Z,101494.63
2017-12-24T03:45:41.287Z,101501.57
2017-12-24T03:48:07.066Z,101488.48
2017-12-24T03:50:32.853Z,101501.31
2017-12-24T03:52:58.646Z,101499.45
2017-12-24T03:55:24.595Z,101499.83
2017-12-24T03:57:50.382Z,101505.48
2017-12-24T04:00:16.183Z,101497.87
2017-12-24T04:02:41.980Z,101496.36
2017-12-24T04:05:07.753Z,101496.52
2017-12-24T04:07:33.526Z,101492.50
2017-12-24T04:09:59.317Z,101480.55
2017-12-24T04:12:25.093Z,101477.50
2017-12-24T04:14:50.867Z,101479.30
2017-12-24T04:17:16.655Z,101477.77
2017-12-24T04:19:42.435Z,101469.62
2017-12-24T04:22:08.204Z,101472.67
2017-12-24T04:24:34.212Z,101488.11
2017-12-24T04:27:00.015Z,101467.83
2017-12-24T04:29:25.787Z,101468.20
2017-12-24T04:31:51.569Z,101459.25
2017-12-24T04:34:17.353Z,101461.03
2017-12-24T04:36:43.158Z,101465.27
2017-12-24T04:39:08.935Z,101469.25
2017-12-24T04:41:34.702Z,101469.39
2017-12-24T04:44:00.514Z,101468.58
2017-12-24T04:46:26.286Z,101472.50
2017-12-24T04:48:52.050Z,101467.33
2017-12-24T04:51:18.002Z,101480.76
2017-12-24T04:53:43.783Z,101467.45
2017-12-24T04:56:09.568Z,101463.58
2017-12-24T04:58:35.378Z,101464.72
2017-12-24T05:01:01.680Z,101464.83
2017-12-24T05:03:27.516Z,101457.77
2017-12-24T05:05:53.353Z,101462.71
2017-12-24T05:08:19.158Z,101448.09
2017-12-24T05:10:44.935Z,101456.14
2017-12-24T05:13:10.713Z,101456.34
2017-12-24T05:15:36.517Z,101453.35
2017-12-24T05:18:02.287Z,101458.64
2017-12-24T05:20:28.059Z,101453.31
2017-12-24T05:22:53.886Z,101452.33
2017-12-24T05:25:19.654Z,101440.70
2017-12-24T05:27:45.427Z,101439.17
2017-12-24T05:30:11.233Z,101431.29
2017-12-24T05:32:37.011Z,101438.15
2017-12-24T05:35:02.794Z,101442.89
2017-12-24T05:37:28.598Z,101438.47
2017-12-24T05:39:54.370Z,101436.41
2017-12-24T05:42:20.158Z,101431.52
2017-12-24T05:44:45.950Z,101434.40
2017-12-24T05:47:11.718Z,101437.71
2017-12-24T05:49:37.497Z,101436.64
2017-12-24T05:52:03.290Z,101428.15
2017-12-24T05:54:29.066Z,101443.41
2017-12-24T05:56:54.836Z,101433.27
2017-12-24T05:59:20.668Z,101430.27
2017-12-24T06:01:46.451Z,101425.01
2017-12-24T06:04:12.236Z,101426.52
2017-12-24T06:06:38.021Z,101424.72
2017-12-24T06:09:04.187Z,101424.63
2017-12-24T06:11:29.975Z,101416.52
2017-12-24T06:13:55.770Z,101420.01
2017-12-24T06:16:21.575Z,101415.44
2017-12-24T06:18:47.366Z,101417.83
2017-12-24T06:21:13.147Z,101412.16
2017-12-24T06:23:38.943Z,101406.91
2017-12-24T06:26:04.732Z,101407.08
2017-12-24T06:28:30.514Z,101395.02
2017-12-24T06:30:56.318Z,101404.64
2017-12-24T06:33:22.094Z,101393.65
2017-12-24T06:35:47.879Z,101396.12
2017-12-24T06:38:13.662Z,101399.46
2017-12-24T06:40:39.442Z,101403.47
2017-12-24T06:43:05.216Z,101404.90
2017-12-24T06:45:31.264Z,101401.52
2017-12-24T06:47:57.042Z,101405.97
2017-12-24T06:50:22.812Z,101403.21
2017-12-24T06:52:48.583Z,101400.16
2017-12-24T06:55:14.350Z,101401.75
2017-12-24T06:57:40.388Z,101391.27
2017-12-24T07:00:06.190Z,101392.58
2017-12-24T07:02:31.978Z,101393.64
2017-12-24T07:04:57.794Z,101387.91
2017-12-24T07:07:23.567Z,101393.15
2017-12-24T07:09:49.349Z,101388.45
2017-12-24T07:12:15.174Z,101386.37
2017-12-24T07:14:40.945Z,101388.00
2017-12-24T07:17:06.719Z,101382.08
2017-12-24T07:19:32.540Z,101387.14
2017-12-24T07:21:58.322Z,101390.45
2017-12-24T07:24:24.086Z,101379.26
2017-12-24T07:26:49.915Z,101402.13
2017-12-24T07:29:15.704Z,101392.08
2017-12-24T07:31:41.514Z,101399.08
2017-12-24T07:34:07.305Z,101396.70
2017-12-24T07:36:33.093Z,101384.52
2017-12-24T07:38:58.882Z,101384.89
2017-12-24T07:41:24.666Z,101391.20
2017-12-24T07:43:50.459Z,101375.52
2017-12-24T07:46:16.267Z,101388.06
2017-12-24T07:48:42.059Z,101387.02
2017-12-24T07:51:07.830Z,101377.52
2017-12-24T07:53:33.620Z,101390.88
2017-12-24T07:55:59.404Z,101381.97
2017-12-24T07:58:25.182Z,101377.89
2017-12-24T08:00:50.978Z,101379.20
2017-12-24T08:03:16.923Z,101386.37
2017-12-24T08:05:42.724Z,101368.47
2017-12-24T08:08:08.537Z,101387.11
2017-12-24T08:10:34.324Z,101379.64
2017-12-24T08:13:00.102Z,101378.21
2017-12-24T08:15:25.882Z,101383.67
2017-12-24T08:17:51.659Z,101386.55
2017-12-24T08:20:17.470Z,101395.22
2017-12-24T08:22:43.250Z,101374.84
2017-12-24T08:25:09.031Z,101370.02
2017-12-24T08:27:34.842Z,101375.98
2017-12-24T08:30:00.616Z,101380.34
2017-12-24T08:32:26.414Z,101382.77
2017-12-24T08:34:52.231Z,101380.51
2017-12-24T08:37:18.034Z,101387.58
2017-12-24T08:39:43.818Z,101379.52
2017-12-24T08:42:09.605Z,101380.07
2017-12-24T08:44:35.370Z,101378.41
2017-12-24T08:47:01.138Z,101380.45
2017-12-24T08:49:26.913Z,101376.52
2017-12-24T08:51:52.683Z,101377.78
2017-12-24T08:54:18.494Z,101387.14
2017-12-24T08:56:44.277Z,101381.53
2017-12-24T08:59:10.071Z,101383.33
2017-12-24T09:01:35.871Z,101383.88
2017-12-24T09:04:01.688Z,101378.16
2017-12-24T09:06:27.464Z,101376.44
2017-12-24T09:08:53.251Z,101375.53
2017-12-24T09:11:19.059Z,101371.59
2017-12-24T09:13:44.858Z,101391.12
2017-12-24T09:16:10.679Z,101371.56
2017-12-24T09:18:36.446Z,101383.63
2017-12-24T09:21:02.230Z,101384.58
2017-12-24T09:23:28.033Z,101387.11
2017-12-24T09:25:53.822Z,101379.13
2017-12-24T09:28:19.606Z,101378.94
2017-12-24T09:30:45.446Z,101374.70
2017-12-24T09:33:11.240Z,101380.95
2017-12-24T09:35:37.020Z,101383.07
2017-12-24T09:38:02.815Z,101398.94
2017-12-24T09:40:28.603Z,101397.22
2017-12-24T09:42:54.389Z,101395.97
2017-12-24T09:45:27.360Z,101388.91
2017-12-24T09:47:53.150Z,101382.61
2017-12-24T09:50:18.936Z,101378.86
2017-12-24T09:52:44.731Z,101368.08
2017-12-24T09:55:10.507Z,101378.48
2017-12-24T09:57:36.291Z,101377.23
2017-12-24T10:00:02.099Z,101371.51
2017-12-24T10:02:27.886Z,101373.57
2017-12-24T10:04:53.688Z,101360.06
2017-12-24T10:07:20.638Z,101356.11
2017-12-24T10:09:46.452Z,101363.00
2017-12-24T10:12:12.247Z,101354.27
2017-12-24T10:14:38.398Z,101348.81
2017-12-24T10:17:04.191Z,101351.60
2017-12-24T10:19:29.972Z,101354.42
2017-12-24T10:21:55.762Z,101349.42
2017-12-24T10:24:21.534Z,101344.80
2017-12-24T10:26:47.347Z,101344.86
2017-12-24T10:29:13.124Z,101346.48
2017-12-24T10:31:38.918Z,101338.79
2017-12-24T10:34:04.726Z,101328.63
2017-12-24T10:36:30.519Z,101339.17
2017-12-24T10:38:56.303Z,101337.42
2017-12-24T10:41:22.134Z,101336.95
2017-12-24T10:43:48.936Z,101334.44
2017-12-24T10:46:15.985Z,101351.77
2017-12-24T10:48:42.006Z,101336.50
2017-12-24T10:51:08.777Z,101329.98
2017-12-24T10:53:35.622Z,101330.16
2017-12-24T10:56:01.506Z,101330.10
2017-12-24T10:58:28.179Z,101344.55
2017-12-24T11:00:54.338Z,101326.62
2017-12-24T11:03:20.249Z,101325.75
2017-12-24T11:05:46.225Z,101333.25
2017-12-24T11:08:12.194Z,101322.00
2017-12-24T11:10:38.015Z,101333.16
2017-12-24T11:13:03.799Z,101316.48
2017-12-24T11:15:29.599Z,101323.59
2017-12-24T11:17:55.673Z,101321.86
2017-12-24T11:20:21.484Z,101309.30
2017-12-24T11:22:47.651Z,101320.11
2017-12-24T11:25:13.674Z,101315.98
2017-12-24T11:27:39.758Z,101323.66
2017-12-24T11:32:38.122Z,101287.48
2017-12-24T11:35:03.926Z,101291.61
2017-12-24T11:37:29.724Z,101286.33
2017-12-24T11:39:55.514Z,101284.44
2017-12-24T11:42:21.523Z,101273.84
2017-12-24T11:44:47.412Z,101272.20
2017-12-24T11:47:13.246Z,101267.21
2017-12-24T11:49:39.143Z,101273.89
2017-12-24T11:52:04.985Z,101260.97
2017-12-24T11:54:31.256Z,101272.06
2017-12-24T11:56:57.073Z,101257.50
2017-12-24T11:59:22.951Z,101248.27
2017-12-24T12:01:49.110Z,101241.36
2017-12-24T12:04:14.954Z,101234.47
2017-12-24T12:06:40.774Z,101234.05
2017-12-24T12:09:06.606Z,101233.10
2017-12-24T12:11:32.742Z,101223.55
2017-12-24T12:13:58.823Z,101238.10
2017-12-24T12:16:24.687Z,101225.98
2017-12-24T12:18:50.874Z,101216.43
2017-12-24T12:21:16.683Z,101218.60
2017-12-24T12:23:42.539Z,101212.30
2017-12-24T12:26:08.342Z,101208.55
2017-12-24T12:28:34.173Z,101200.98
2017-12-24T12:31:00.616Z,101201.98
2017-12-24T12:33:26.507Z,101205.88
2017-12-24T12:35:52.733Z,101200.98
2017-12-24T12:38:19.367Z,101206.75
2017-12-24T12:40:45.224Z,101198.33
2017-12-24T12:43:11.788Z,101210.50
2017-12-24T12:45:38.796Z,101191.87
2017-12-24T12:48:06.665Z,101195.61
2017-12-24T12:50:32.515Z,101195.45
2017-12-24T12:52:58.335Z,101178.02
2017-12-24T12:55:24.133Z,101187.52
2017-12-24T12:57:49.895Z,101185.45
2017-12-24T13:00:15.711Z,101186.76
2017-12-24T13:02:41.493Z,101183.94
2017-12-24T13:05:07.269Z,101186.76
2017-12-24T13:07:33.063Z,101178.02
2017-12-24T13:09:58.870Z,101182.37
2017-12-24T13:12:24.647Z,101178.34
2017-12-24T13:14:50.444Z,101189.26
2017-12-24T13:17:16.231Z,101172.87
2017-12-24T13:19:42.015Z,101170.19
2017-12-24T13:22:07.814Z,101171.82
2017-12-24T13:24:33.701Z,101178.45
2017-12-24T13:26:59.492Z,101160.95
2017-12-24T13:29:25.295Z,101171.01
2017-12-24T13:31:51.084Z,101162.64
2017-12-24T13:34:17.165Z,101156.07
2017-12-24T13:36:42.979Z,101151.51
2017-12-24T13:39:08.757Z,101147.33
2017-12-24T13:41:34.569Z,101137.77
2017-12-24T13:44:00.621Z,101136.84
2017-12-24T13:46:26.418Z,101127.77
2017-12-24T13:48:52.220Z,101126.84
2017-12-24T13:51:18.017Z,101133.58
2017-12-24T13:53:43.787Z,101123.97
2017-12-24T13:56:09.598Z,101121.80
2017-12-24T13:58:35.383Z,101110.63
2017-12-24T14:01:01.220Z,101119.62
2017-12-24T14:03:27.070Z,101106.94
2017-12-24T14:05:52.888Z,101104.06
2017-12-24T14:08:19.104Z,101111.61
2017-12-24T14:10:45.081Z,101085.06
2017-12-24T14:13:10.895Z,101068.06
2017-12-24T14:15:36.995Z,101105.14
2017-12-24T14:18:03.100Z,101098.19
2017-12-24T14:20:29.112Z,101099.00
2017-12-24T14:22:54.916Z,101078.11
2017-12-24T14:25:20.687Z,101085.83
2017-12-24T14:27:46.511Z,101087.97
2017-12-24T14:30:12.418Z,101080.52
2017-12-24T14:32:38.200Z,101090.41
2017-12-24T14:35:04.002Z,101063.92
2017-12-24T14:37:29.794Z,101086.28
2017-12-24T14:39:55.735Z,101080.47
2017-12-24T14:42:21.521Z,101091.83
2017-12-24T14:44:47.543Z,101076.11
2017-12-24T14:47:13.562Z,101086.30
2017-12-24T14:49:39.333Z,101080.19
2017-12-24T14:52:05.115Z,101078.94
2017-12-24T14:54:31.432Z,101082.31
2017-12-24T14:56:57.230Z,101069.19
2017-12-24T14:59:23.007Z,101066.45
2017-12-24T15:01:48.930Z,101068.28
2017-12-24T15:04:14.750Z,101069.91
2017-12-24T15:06:40.775Z,101081.98
2017-12-24T15:09:06.571Z,101074.88
2017-12-24T15:11:32.695Z,101069.14
2017-12-24T15:13:58.493Z,101064.05
2017-12-24T15:16:24.278Z,101064.87
2017-12-24T15:18:50.053Z,101063.21
2017-12-24T15:21:16.047Z,101062.70
2017-12-24T15:23:41.834Z,101069.33
2017-12-24T15:26:07.675Z,101055.75
2017-12-24T15:28:33.495Z,101064.46
2017-12-24T15:30:59.595Z,101064.86
2017-12-24T15:33:25.412Z,101055.33
2017-12-24T15:35:51.220Z,101069.70
2017-12-24T15:38:17.018Z,101064.23
2017-12-24T15:40:42.801Z,101070.95
2017-12-24T15:43:08.610Z,101065.05
2017-12-24T15:45:34.407Z,101059.85
2017-12-24T15:48:00.179Z,101060.72
2017-12-24T15:50:25.982Z,101064.56
2017-12-24T15:52:51.754Z,101049.84
2017-12-24T15:55:17.562Z,101058.45
2017-12-24T15:57:43.343Z,101060.86
2017-12-24T16:00:09.131Z,101054.27
2017-12-24T16:02:34.942Z,101043.88
2017-12-24T16:05:00.724Z,101048.64
2017-12-24T16:07:26.506Z,101047.72
2017-12-24T16:09:52.559Z,101041.47
2017-12-24T16:12:18.366Z,101047.80
2017-12-24T16:14:44.206Z,101040.00
2017-12-24T16:17:09.967Z,101036.38
2017-12-24T16:19:35.750Z,101036.02
2017-12-24T16:22:01.528Z,101033.46
2017-12-24T16:24:27.559Z,101028.02
2017-12-24T16:26:53.331Z,101027.88
2017-12-24T16:29:19.104Z,101027.02
2017-12-24T16:31:45.310Z,101023.47
2017-12-24T16:34:11.103Z,101018.08
2017-12-24T16:36:36.892Z,101024.61
2017-12-24T16:39:02.751Z,101019.08
2017-12-24T16:41:28.531Z,101027.55
2017-12-24T16:43:54.516Z,101005.98
2017-12-24T16:46:20.314Z,101021.05
2017-12-24T16:48:46.090Z,101013.00
2017-12-24T16:51:11.882Z,100997.02
2017-12-24T16:53:37.655Z,100996.16
2017-12-24T16:56:03.474Z,101016.61
2017-12-24T16:58:29.286Z,101020.75
2017-12-24T17:00:55.072Z,101013.28
2017-12-24T17:03:20.860Z,101003.13
2017-12-24T17:05:46.647Z,100983.97
2017-12-24T17:08:12.475Z,100999.91
2017-12-24T17:10:38.262Z,100999.06
2017-12-24T17:13:04.047Z,101003.10
2017-12-24T17:15:29.959Z,101002.54
2017-12-24T17:17:55.730Z,101002.84
2017-12-24T17:20:21.518Z,101004.89
2017-12-24T17:22:47.334Z,101008.80
2017-12-24T17:25:13.130Z,100999.27
2017-12-24T17:27:38.899Z,101005.19
2017-12-24T17:30:04.704Z,101012.22
2017-12-24T17:32:30.471Z,100997.23
2017-12-24T17:34:56.264Z,101009.36
2017-12-24T17:37:22.417Z,101008.74
2017-12-24T17:39:48.242Z,101003.16
2017-12-24T17:42:14.023Z,101006.32
2017-12-24T17:44:39.823Z,101008.00
2017-12-24T17:47:05.894Z,100984.02
2017-12-24T17:49:31.680Z,100989.66
2017-12-24T17:51:57.467Z,100990.14
2017-12-24T17:54:23.286Z,100976.13
2017-12-24T17:56:49.071Z,100993.55
2017-12-24T17:59:14.868Z,100985.61
2017-12-24T18:01:40.665Z,101000.50
2017-12-24T18:04:06.509Z,100998.27
2017-12-24T18:06:32.290Z,100980.02
2017-12-24T18:08:58.070Z,100993.22
2017-12-24T18:11:23.864Z,100990.45
2017-12-24T18:13:49.700Z,100981.56
2017-12-24T18:16:15.495Z,100985.61
2017-12-24T18:18:41.271Z,100980.02
2017-12-24T18:21:07.324Z,100958.34
2017-12-24T18:23:33.104Z,100970.14
2017-12-24T18:25:58.875Z,100971.41
2017-12-24T18:28:24.672Z,100970.41
2017-12-24T18:30:50.533Z,100976.37
2017-12-24T18:33:16.303Z,100971.63
2017-12-24T18:35:42.087Z,100976.86
2017-12-24T18:38:07.875Z,100981.69
2017-12-24T18:40:33.656Z,100966.89
2017-12-24T18:42:59.544Z,100982.45
2017-12-24T18:45:25.339Z,100980.05
2017-12-24T18:47:51.135Z,100985.87
2017-12-24T18:50:17.166Z,100984.75
2017-12-24T18:52:42.947Z,100987.87
2017-12-24T18:55:08.729Z,100976.63
2017-12-24T18:57:34.526Z,100990.24
2017-12-24T19:00:00.303Z,100984.90
2017-12-24T19:02:26.080Z,100980.06
2017-12-24T19:04:51.863Z,100989.31
2017-12-24T19:07:17.699Z,100984.92
2017-12-24T19:09:43.704Z,101001.58
2017-12-24T19:12:09.483Z,100976.28
2017-12-24T19:14:35.255Z,100991.45
2017-12-24T19:17:01.037Z,100992.61
2017-12-24T19:19:26.819Z,100995.21
2017-12-24T19:21:52.643Z,100981.66
2017-12-24T19:24:18.433Z,100998.66
2017-12-24T19:26:44.223Z,100997.13
2017-12-24T19:29:10.145Z,100996.14
2017-12-24T19:31:35.928Z,100996.67
2017-12-24T19:34:01.719Z,100994.88
2017-12-24T19:36:27.543Z,100993.36
2017-12-24T19:38:53.319Z,100999.05
2017-12-24T19:41:19.090Z,100998.14
2017-12-24T19:46:17.372Z,100986.92
2017-12-24T19:48:43.184Z,100983.30
2017-12-24T19:51:08.987Z,100985.51
2017-12-24T19:53:34.770Z,100989.72
2017-12-24T19:56:00.847Z,100980.80
2017-12-24T19:58:26.622Z,100985.98
2017-12-24T20:00:52.407Z,100975.84
2017-12-24T20:03:18.466Z,100981.12
2017-12-24T20:05:44.238Z,100983.84
2017-12-24T20:08:10.011Z,100992.84
2017-12-24T20:10:35.821Z,100991.03
2017-12-24T20:13:01.627Z,100995.74
2017-12-24T20:15:27.400Z,100987.23
2017-12-24T20:17:53.484Z,100998.68
2017-12-24T20:20:19.284Z,101001.92
2017-12-24T20:22:45.059Z,101004.01
2017-12-24T20:25:10.867Z,101004.35
2017-12-24T20:27:36.649Z,101012.07
2017-12-24T20:30:02.477Z,101012.28
2017-12-24T20:32:28.501Z,101014.69
2017-12-24T20:34:54.279Z,101010.72
2017-12-24T20:37:20.051Z,101015.95
2017-12-24T20:39:46.163Z,101020.29
2017-12-24T20:42:11.934Z,101027.55
2017-12-24T20:44:37.711Z,101030.78
2017-12-24T20:47:03.575Z,101023.04
2017-12-24T20:49:29.371Z,101029.78
2017-12-24T20:51:55.155Z,101033.33
2017-12-24T20:54:21.042Z,101028.32
2017-12-24T20:56:46.827Z,101027.98
2017-12-24T20:59:12.619Z,101041.06
2017-12-24T21:01:38.731Z,101038.38
2017-12-24T21:04:04.533Z,101050.52
2017-12-24T21:06:30.306Z,101037.34
2017-12-24T21:08:56.096Z,101028.19
2017-12-24T21:11:21.859Z,101035.82
2017-12-24T21:13:54.989Z,101044.98
2017-12-24T21:16:20.776Z,101035.30
2017-12-24T21:18:46.566Z,101034.91
2017-12-24T21:21:12.418Z,101041.91
2017-12-24T21:23:38.219Z,101040.61
2017-12-24T21:26:04.045Z,101051.78
2017-12-24T21:28:30.075Z,101036.90
2017-12-24T21:30:55.854Z,101052.70
2017-12-24T21:33:21.639Z,101038.66
2017-12-24T21:35:47.415Z,101028.12
2017-12-24T21:38:13.211Z,101037.67
2017-12-24T21:40:39.003Z,101044.70
2017-12-24T21:43:04.807Z,101041.10
2017-12-24T21:45:30.617Z,101033.46
2017-12-24T21:47:56.401Z,101041.41
2017-12-24T21:50:22.174Z,101038.91
2017-12-24T21:52:48.000Z,101034.91
2017-12-24T21:55:13.802Z,101029.38
2017-12-24T21:57:39.599Z,101024.75
2017-12-24T22:00:05.416Z,101025.96
2017-12-24T22:02:31.211Z,101022.30
2017-12-24T22:04:57.039Z,101028.23
2017-12-24T22:07:22.814Z,101042.66
2017-12-24T22:09:48.635Z,101030.23
2017-12-24T22:12:14.443Z,101042.91
2017-12-24T22:14:40.226Z,101033.73
2017-12-24T22:17:06.003Z,101040.33
2017-12-24T22:19:31.795Z,101037.59
2017-12-24T22:21:57.593Z,101040.09
2017-12-24T22:24:23.386Z,101033.12
2017-12-24T22:26:49.186Z,101047.45
2017-12-24T22:29:15.008Z,101046.64
2017-12-24T22:31:40.804Z,101045.56
2017-12-24T22:34:06.603Z,101036.19
2017-12-24T22:36:33.259Z,101030.45
2017-12-24T22:38:59.399Z,101043.59
2017-12-24T22:41:25.190Z,101036.03
2017-12-24T22:43:50.996Z,101025.78
2017-12-24T22:46:16.990Z,101034.88
2017-12-24T22:48:42.840Z,101039.40
2017-12-24T22:51:08.930Z,101026.44
2017-12-24T22:53:34.727Z,101037.45
2017-12-24T22:56:00.516Z,101043.81
2017-12-24T22:58:26.433Z,101045.39
2017-12-24T23:00:52.279Z,101030.95
2017-12-24T23:03:18.067Z,101020.25
2017-12-24T23:05:44.114Z,101029.02
2017-12-24T23:08:09.895Z,101042.91
2017-12-24T23:10:35.683Z,101035.82
2017-12-24T23:13:01.507Z,101028.47
2017-12-24T23:15:27.326Z,101024.50
2017-12-24T23:17:53.114Z,101022.09
2017-12-24T23:20:19.354Z,101030.37
2017-12-24T23:22:45.303Z,101018.45
2017-12-24T23:25:11.156Z,101020.09
2017-12-24T23:27:36.974Z,101018.23
2017-12-24T23:30:02.767Z,101017.13
2017-12-24T23:32:28.566Z,101018.45
2017-12-24T23:34:54.374Z,101020.89
2017-12-24T23:37:20.178Z,101016.86
2017-12-24T23:39:46.032Z,101016.75
2017-12-24T23:42:11.982Z,101025.03
2017-12-24T23:44:37.791Z,101023.70
2017-12-24T23:47:03.646Z,101023.58
2017-12-24T23:49:29.644Z,101018.36
2017-12-24T23:51:55.676Z,101019.34
2017-12-24T23:54:21.566Z,101019.70
2017-12-24T23:56:47.706Z,101015.13
2017-12-24T23:59:13.639Z,101019.24
